sensor_id;sensor_type;location;lat;lon;timestamp;P1;durP1;ratioP1;P2;durP2;ratioP2
65039;SDS011;51606;45.000;38.612;2023-06-22T04:53:42;38.65;;;4.75;;
65039;SDS011;51606;45.000;38.612;2023-06-22T04:56:08;7.70;;;3.97;;
65039;SDS011;51606;45.000;38.612;2023-06-22T04:58:35;7.28;;;4.15;;
65039;SDS011;51606;45.000;38.612;2023-06-22T05:01:01;6.18;;;3.97;;
65039;SDS011;51606;45.000;38.612;2023-06-22T05:03:29;8.50;;;3.92;;
65039;SDS011;51606;45.000;38.612;2023-06-22T05:05:55;10.13;;;4.15;;
65039;SDS011;51606;45.000;38.612;2023-06-22T05:08:22;7.60;;;3.60;;
65039;SDS011;51606;45.000;38.612;2023-06-22T05:10:52;6.70;;;3.40;;
65039;SDS011;51606;45.000;38.612;2023-06-22T05:13:18;6.30;;;3.35;;
65039;SDS011;51606;45.000;38.612;2023-06-22T05:15:47;8.02;;;3.55;;
65039;SDS011;51606;45.000;38.612;2023-06-22T05:18:13;5.22;;;3.50;;
65039;SDS011;51606;45.000;38.612;2023-06-22T05:20:40;6.22;;;3.65;;
65039;SDS011;51606;45.000;38.612;2023-06-22T05:23:06;7.53;;;3.85;;
65039;SDS011;51606;45.000;38.612;2023-06-22T05:25:33;6.70;;;3.30;;
65039;SDS011;51606;45.000;38.612;2023-06-22T05:27:59;8.00;;;3.85;;
65039;SDS011;51606;45.000;38.612;2023-06-22T05:30:25;6.78;;;4.03;;
65039;SDS011;51606;45.000;38.612;2023-06-22T05:32:53;9.73;;;3.65;;
65039;SDS011;51606;45.000;38.612;2023-06-22T05:35:19;6.22;;;3.88;;
65039;SDS011;51606;45.000;38.612;2023-06-22T05:37:45;17.30;;;3.85;;
65039;SDS011;51606;45.000;38.612;2023-06-22T05:40:12;6.38;;;4.07;;
65039;SDS011;51606;45.000;38.612;2023-06-22T05:42:38;8.77;;;3.20;;
65039;SDS011;51606;45.000;38.612;2023-06-22T05:45:05;6.10;;;3.65;;
65039;SDS011;51606;45.000;38.612;2023-06-22T05:47:31;10.93;;;3.60;;
65039;SDS011;51606;45.000;38.612;2023-06-22T05:49:58;8.00;;;4.15;;
65039;SDS011;51606;45.000;38.612;2023-06-22T05:52:24;6.82;;;3.15;;
65039;SDS011;51606;45.000;38.612;2023-06-22T05:54:51;6.95;;;3.65;;
65039;SDS011;51606;45.000;38.612;2023-06-22T05:57:17;13.85;;;3.63;;
65039;SDS011;51606;45.000;38.612;2023-06-22T05:59:44;8.75;;;3.88;;
65039;SDS011;51606;45.000;38.612;2023-06-22T06:02:10;5.68;;;3.72;;
65039;SDS011;51606;45.000;38.612;2023-06-22T06:04:36;15.70;;;4.07;;
65039;SDS011;51606;45.000;38.612;2023-06-22T06:07:03;5.35;;;3.38;;
65039;SDS011;51606;45.000;38.612;2023-06-22T06:09:29;6.07;;;3.38;;
65039;SDS011;51606;45.000;38.612;2023-06-22T06:11:56;9.02;;;3.75;;
65039;SDS011;51606;45.000;38.612;2023-06-22T06:14:22;4.13;;;3.40;;
65039;SDS011;51606;45.000;38.612;2023-06-22T06:16:49;6.90;;;3.58;;
65039;SDS011;51606;45.000;38.612;2023-06-22T06:19:15;8.20;;;3.67;;
65039;SDS011;51606;45.000;38.612;2023-06-22T06:21:41;9.05;;;3.83;;
65039;SDS011;51606;45.000;38.612;2023-06-22T06:24:08;5.30;;;3.50;;
65039;SDS011;51606;45.000;38.612;2023-06-22T06:26:34;5.85;;;3.88;;
65039;SDS011;51606;45.000;38.612;2023-06-22T06:29:01;7.50;;;4.10;;
65039;SDS011;51606;45.000;38.612;2023-06-22T06:31:27;11.65;;;3.83;;
65039;SDS011;51606;45.000;38.612;2023-06-22T06:33:54;5.97;;;3.75;;
65039;SDS011;51606;45.000;38.612;2023-06-22T06:36:21;7.05;;;3.65;;
65039;SDS011;51606;45.000;38.612;2023-06-22T06:38:47;6.20;;;3.13;;
65039;SDS011;51606;45.000;38.612;2023-06-22T06:41:14;6.60;;;3.05;;
65039;SDS011;51606;45.000;38.612;2023-06-22T06:43:42;5.40;;;3.25;;
65039;SDS011;51606;45.000;38.612;2023-06-22T06:46:09;8.43;;;3.42;;
65039;SDS011;51606;45.000;38.612;2023-06-22T06:48:35;10.27;;;3.05;;
65039;SDS011;51606;45.000;38.612;2023-06-22T06:51:02;6.95;;;2.85;;
65039;SDS011;51606;45.000;38.612;2023-06-22T06:53:28;12.40;;;3.38;;
65039;SDS011;51606;45.000;38.612;2023-06-22T06:55:55;12.52;;;3.60;;
65039;SDS011;51606;45.000;38.612;2023-06-22T06:58:21;10.95;;;2.95;;
65039;SDS011;51606;45.000;38.612;2023-06-22T07:00:48;5.63;;;3.13;;
65039;SDS011;51606;45.000;38.612;2023-06-22T07:03:15;15.48;;;3.03;;
65039;SDS011;51606;45.000;38.612;2023-06-22T07:05:41;4.85;;;3.33;;
65039;SDS011;51606;45.000;38.612;2023-06-22T07:08:08;5.72;;;2.95;;
65039;SDS011;51606;45.000;38.612;2023-06-22T07:10:34;3.70;;;2.65;;
65039;SDS011;51606;45.000;38.612;2023-06-22T07:13:01;4.97;;;2.80;;
65039;SDS011;51606;45.000;38.612;2023-06-22T07:15:27;5.03;;;2.90;;
65039;SDS011;51606;45.000;38.612;2023-06-22T07:17:53;5.35;;;3.03;;
65039;SDS011;51606;45.000;38.612;2023-06-22T07:20:19;5.45;;;2.65;;
65039;SDS011;51606;45.000;38.612;2023-06-22T07:22:46;4.35;;;2.53;;
65039;SDS011;51606;45.000;38.612;2023-06-22T07:25:12;6.45;;;2.80;;
65039;SDS011;51606;45.000;38.612;2023-06-22T07:27:43;16.95;;;3.05;;
65039;SDS011;51606;45.000;38.612;2023-06-22T07:30:24;4.03;;;2.55;;
65039;SDS011;51606;45.000;38.612;2023-06-22T07:33:00;3.63;;;2.47;;
65039;SDS011;51606;45.000;38.612;2023-06-22T07:35:29;9.25;;;2.70;;
65039;SDS011;51606;45.000;38.612;2023-06-22T07:37:56;2.88;;;2.38;;
65039;SDS011;51606;45.000;38.612;2023-06-22T07:40:22;6.00;;;2.97;;
65039;SDS011;51606;45.000;38.612;2023-06-22T07:42:48;6.57;;;2.13;;
65039;SDS011;51606;45.000;38.612;2023-06-22T07:45:17;11.55;;;2.70;;
65039;SDS011;51606;45.000;38.612;2023-06-22T07:47:43;3.55;;;2.50;;
65039;SDS011;51606;45.000;38.612;2023-06-22T07:50:10;2.97;;;2.28;;
65039;SDS011;51606;45.000;38.612;2023-06-22T07:52:39;5.65;;;2.60;;
65039;SDS011;51606;45.000;38.612;2023-06-22T07:55:06;14.07;;;2.80;;
65039;SDS011;51606;45.000;38.612;2023-06-22T07:57:32;3.40;;;2.28;;
65039;SDS011;51606;45.000;38.612;2023-06-22T08:00:03;7.28;;;2.53;;
65039;SDS011;51606;45.000;38.612;2023-06-22T08:02:40;5.35;;;2.72;;
65039;SDS011;51606;45.000;38.612;2023-06-22T08:05:08;3.42;;;2.33;;
65039;SDS011;51606;45.000;38.612;2023-06-22T08:07:36;10.70;;;2.63;;
65039;SDS011;51606;45.000;38.612;2023-06-22T08:10:04;4.20;;;2.17;;
65039;SDS011;51606;45.000;38.612;2023-06-22T08:12:31;18.60;;;2.60;;
65039;SDS011;51606;45.000;38.612;2023-06-22T08:14:58;6.10;;;1.80;;
65039;SDS011;51606;45.000;38.612;2023-06-22T08:17:24;5.28;;;2.25;;
65039;SDS011;51606;45.000;38.612;2023-06-22T08:19:52;3.13;;;2.45;;
65039;SDS011;51606;45.000;38.612;2023-06-22T08:22:18;4.15;;;2.28;;
65039;SDS011;51606;45.000;38.612;2023-06-22T08:24:44;3.47;;;2.15;;
65039;SDS011;51606;45.000;38.612;2023-06-22T08:27:11;3.13;;;2.17;;
65039;SDS011;51606;45.000;38.612;2023-06-22T08:29:39;3.15;;;2.05;;
65039;SDS011;51606;45.000;38.612;2023-06-22T08:32:05;2.58;;;1.65;;
65039;SDS011;51606;45.000;38.612;2023-06-22T08:34:32;4.05;;;2.30;;
65039;SDS011;51606;45.000;38.612;2023-06-22T08:37:00;6.57;;;2.00;;
65039;SDS011;51606;45.000;38.612;2023-06-22T08:39:27;9.43;;;2.10;;
65039;SDS011;51606;45.000;38.612;2023-06-22T08:41:53;2.78;;;1.83;;
65039;SDS011;51606;45.000;38.612;2023-06-22T08:44:19;2.38;;;1.60;;
65039;SDS011;51606;45.000;38.612;2023-06-22T08:46:46;3.05;;;1.75;;
65039;SDS011;51606;45.000;38.612;2023-06-22T08:49:12;10.70;;;2.20;;
65039;SDS011;51606;45.000;38.612;2023-06-22T08:51:38;2.30;;;1.80;;
65039;SDS011;51606;45.000;38.612;2023-06-22T08:54:05;2.90;;;1.83;;
65039;SDS011;51606;45.000;38.612;2023-06-22T08:56:31;6.20;;;1.80;;
65039;SDS011;51606;45.000;38.612;2023-06-22T08:58:58;5.13;;;2.08;;
65039;SDS011;51606;45.000;38.612;2023-06-22T09:01:26;9.43;;;2.05;;
65039;SDS011;51606;45.000;38.612;2023-06-22T09:03:52;5.65;;;1.73;;
65039;SDS011;51606;45.000;38.612;2023-06-22T09:06:23;3.42;;;1.95;;
65039;SDS011;51606;45.000;38.612;2023-06-22T09:08:50;12.00;;;1.80;;
65039;SDS011;51606;45.000;38.612;2023-06-22T09:11:16;4.53;;;1.90;;
65039;SDS011;51606;45.000;38.612;2023-06-22T09:13:43;2.50;;;1.60;;
65039;SDS011;51606;45.000;38.612;2023-06-22T09:16:09;2.75;;;1.73;;
65039;SDS011;51606;45.000;38.612;2023-06-22T09:18:35;4.70;;;1.88;;
65039;SDS011;51606;45.000;38.612;2023-06-22T09:21:02;2.92;;;1.90;;
65039;SDS011;51606;45.000;38.612;2023-06-22T09:23:28;4.45;;;1.77;;
65039;SDS011;51606;45.000;38.612;2023-06-22T09:25:55;3.10;;;2.03;;
65039;SDS011;51606;45.000;38.612;2023-06-22T09:28:21;3.53;;;1.73;;
65039;SDS011;51606;45.000;38.612;2023-06-22T09:30:47;7.18;;;2.28;;
65039;SDS011;51606;45.000;38.612;2023-06-22T09:33:14;6.40;;;2.15;;
65039;SDS011;51606;45.000;38.612;2023-06-22T09:35:40;3.05;;;1.75;;
65039;SDS011;51606;45.000;38.612;2023-06-22T09:38:06;2.35;;;1.80;;
65039;SDS011;51606;45.000;38.612;2023-06-22T09:40:33;3.88;;;1.85;;
65039;SDS011;51606;45.000;38.612;2023-06-22T09:43:05;2.15;;;1.75;;
65039;SDS011;51606;45.000;38.612;2023-06-22T09:45:31;2.22;;;1.63;;
65039;SDS011;51606;45.000;38.612;2023-06-22T09:47:58;3.55;;;1.75;;
65039;SDS011;51606;45.000;38.612;2023-06-22T09:50:24;5.18;;;1.90;;
65039;SDS011;51606;45.000;38.612;2023-06-22T09:52:50;8.63;;;1.85;;
65039;SDS011;51606;45.000;38.612;2023-06-22T09:55:23;14.30;;;2.25;;
65039;SDS011;51606;45.000;38.612;2023-06-22T09:57:49;3.20;;;1.77;;
65039;SDS011;51606;45.000;38.612;2023-06-22T10:00:16;4.38;;;1.75;;
65039;SDS011;51606;45.000;38.612;2023-06-22T10:02:46;6.50;;;1.80;;
65039;SDS011;51606;45.000;38.612;2023-06-22T10:05:13;2.58;;;1.80;;
65039;SDS011;51606;45.000;38.612;2023-06-22T10:07:39;6.88;;;1.77;;
65039;SDS011;51606;45.000;38.612;2023-06-22T10:10:09;2.35;;;1.60;;
65039;SDS011;51606;45.000;38.612;2023-06-22T10:12:37;3.88;;;1.75;;
65039;SDS011;51606;45.000;38.612;2023-06-22T10:15:14;2.38;;;1.60;;
65039;SDS011;51606;45.000;38.612;2023-06-22T10:17:40;2.33;;;1.88;;
65039;SDS011;51606;45.000;38.612;2023-06-22T10:20:07;9.05;;;1.63;;
65039;SDS011;51606;45.000;38.612;2023-06-22T10:22:38;2.97;;;2.03;;
65039;SDS011;51606;45.000;38.612;2023-06-22T10:25:05;5.22;;;2.35;;
65039;SDS011;51606;45.000;38.612;2023-06-22T10:27:33;2.78;;;1.60;;
65039;SDS011;51606;45.000;38.612;2023-06-22T10:29:59;2.70;;;1.77;;
65039;SDS011;51606;45.000;38.612;2023-06-22T10:32:26;4.63;;;2.08;;
65039;SDS011;51606;45.000;38.612;2023-06-22T10:34:54;2.25;;;1.85;;
65039;SDS011;51606;45.000;38.612;2023-06-22T10:37:20;1.90;;;1.50;;
65039;SDS011;51606;45.000;38.612;2023-06-22T10:39:47;5.18;;;2.05;;
65039;SDS011;51606;45.000;38.612;2023-06-22T10:42:13;2.28;;;1.80;;
65039;SDS011;51606;45.000;38.612;2023-06-22T10:44:40;3.30;;;2.17;;
65039;SDS011;51606;45.000;38.612;2023-06-22T10:47:08;3.15;;;2.10;;
65039;SDS011;51606;45.000;38.612;2023-06-22T10:49:39;3.13;;;2.03;;
65039;SDS011;51606;45.000;38.612;2023-06-22T10:52:06;5.72;;;1.63;;
65039;SDS011;51606;45.000;38.612;2023-06-22T10:54:34;15.77;;;1.77;;
65039;SDS011;51606;45.000;38.612;2023-06-22T10:57:02;2.42;;;1.73;;
65039;SDS011;51606;45.000;38.612;2023-06-22T10:59:28;4.72;;;2.05;;
65039;SDS011;51606;45.000;38.612;2023-06-22T11:01:55;2.30;;;1.48;;
65039;SDS011;51606;45.000;38.612;2023-06-22T11:04:23;3.35;;;2.20;;
65039;SDS011;51606;45.000;38.612;2023-06-22T11:06:50;4.40;;;1.90;;
65039;SDS011;51606;45.000;38.612;2023-06-22T11:09:17;9.23;;;1.77;;
65039;SDS011;51606;45.000;38.612;2023-06-22T11:11:47;5.03;;;2.05;;
65039;SDS011;51606;45.000;38.612;2023-06-22T11:14:13;7.07;;;1.65;;
65039;SDS011;51606;45.000;38.612;2023-06-22T11:16:40;3.15;;;1.40;;
65039;SDS011;51606;45.000;38.612;2023-06-22T11:19:06;6.25;;;1.83;;
65039;SDS011;51606;45.000;38.612;2023-06-22T11:21:33;3.13;;;1.92;;
65039;SDS011;51606;45.000;38.612;2023-06-22T11:24:02;3.22;;;1.90;;
65039;SDS011;51606;45.000;38.612;2023-06-22T11:26:28;2.80;;;2.10;;
65039;SDS011;51606;45.000;38.612;2023-06-22T11:28:55;2.95;;;1.80;;
65039;SDS011;51606;45.000;38.612;2023-06-22T11:31:21;3.20;;;1.95;;
65039;SDS011;51606;45.000;38.612;2023-06-22T11:33:48;11.27;;;2.00;;
65039;SDS011;51606;45.000;38.612;2023-06-22T11:36:14;1.73;;;1.50;;
65039;SDS011;51606;45.000;38.612;2023-06-22T11:38:41;2.60;;;1.55;;
65039;SDS011;51606;45.000;38.612;2023-06-22T11:41:09;4.18;;;1.60;;
65039;SDS011;51606;45.000;38.612;2023-06-22T11:43:36;6.75;;;1.58;;
65039;SDS011;51606;45.000;38.612;2023-06-22T11:46:05;3.17;;;1.60;;
65039;SDS011;51606;45.000;38.612;2023-06-22T11:48:31;2.25;;;1.60;;
65039;SDS011;51606;45.000;38.612;2023-06-22T11:50:58;3.15;;;1.60;;
65039;SDS011;51606;45.000;38.612;2023-06-22T11:53:25;5.03;;;1.98;;
65039;SDS011;51606;45.000;38.612;2023-06-22T11:55:52;3.10;;;1.55;;
65039;SDS011;51606;45.000;38.612;2023-06-22T11:58:19;3.25;;;1.85;;
65039;SDS011;51606;45.000;38.612;2023-06-22T12:00:47;1.42;;;1.30;;
65039;SDS011;51606;45.000;38.612;2023-06-22T12:03:14;3.85;;;1.65;;
65039;SDS011;51606;45.000;38.612;2023-06-22T12:05:42;2.33;;;1.63;;
65039;SDS011;51606;45.000;38.612;2023-06-22T12:08:08;1.73;;;1.38;;
65039;SDS011;51606;45.000;38.612;2023-06-22T12:10:35;2.70;;;1.90;;
65039;SDS011;51606;45.000;38.612;2023-06-22T12:13:01;7.60;;;1.83;;
65039;SDS011;51606;45.000;38.612;2023-06-22T12:15:28;3.28;;;1.88;;
65039;SDS011;51606;45.000;38.612;2023-06-22T12:17:54;2.08;;;1.23;;
65039;SDS011;51606;45.000;38.612;2023-06-22T12:20:23;2.08;;;1.50;;
65039;SDS011;51606;45.000;38.612;2023-06-22T12:22:49;2.65;;;1.38;;
65039;SDS011;51606;45.000;38.612;2023-06-22T12:25:17;7.68;;;1.73;;
65039;SDS011;51606;45.000;38.612;2023-06-22T12:27:43;1.95;;;1.50;;
65039;SDS011;51606;45.000;38.612;2023-06-22T12:30:10;2.40;;;1.58;;
65039;SDS011;51606;45.000;38.612;2023-06-22T12:32:36;2.80;;;1.67;;
65039;SDS011;51606;45.000;38.612;2023-06-22T12:35:03;5.03;;;1.55;;
65039;SDS011;51606;45.000;38.612;2023-06-22T12:37:29;5.07;;;1.60;;
65039;SDS011;51606;45.000;38.612;2023-06-22T12:39:57;2.55;;;1.52;;
65039;SDS011;51606;45.000;38.612;2023-06-22T12:42:23;2.33;;;1.20;;
65039;SDS011;51606;45.000;38.612;2023-06-22T12:44:52;2.38;;;1.50;;
65039;SDS011;51606;45.000;38.612;2023-06-22T12:47:18;2.05;;;1.55;;
65039;SDS011;51606;45.000;38.612;2023-06-22T12:49:45;7.47;;;1.33;;
65039;SDS011;51606;45.000;38.612;2023-06-22T12:52:14;2.33;;;1.63;;
65039;SDS011;51606;45.000;38.612;2023-06-22T12:54:40;4.95;;;1.90;;
65039;SDS011;51606;45.000;38.612;2023-06-22T12:57:07;2.10;;;1.33;;
65039;SDS011;51606;45.000;38.612;2023-06-22T12:59:33;6.28;;;1.73;;
65039;SDS011;51606;45.000;38.612;2023-06-22T13:02:00;2.30;;;1.42;;
65039;SDS011;51606;45.000;38.612;2023-06-22T13:04:26;3.17;;;1.73;;
65039;SDS011;51606;45.000;38.612;2023-06-22T13:06:52;2.25;;;1.70;;
65039;SDS011;51606;45.000;38.612;2023-06-22T13:09:19;2.17;;;1.60;;
65039;SDS011;51606;45.000;38.612;2023-06-22T13:11:45;2.22;;;1.75;;
65039;SDS011;51606;45.000;38.612;2023-06-22T13:14:12;3.20;;;2.05;;
65039;SDS011;51606;45.000;38.612;2023-06-22T13:16:38;2.45;;;1.55;;
65039;SDS011;51606;45.000;38.612;2023-06-22T13:19:05;2.45;;;1.42;;
65039;SDS011;51606;45.000;38.612;2023-06-22T13:21:31;6.85;;;1.48;;
65039;SDS011;51606;45.000;38.612;2023-06-22T13:23:59;1.83;;;1.42;;
65039;SDS011;51606;45.000;38.612;2023-06-22T13:26:26;2.17;;;1.50;;
65039;SDS011;51606;45.000;38.612;2023-06-22T13:28:54;2.33;;;1.40;;
65039;SDS011;51606;45.000;38.612;2023-06-22T13:31:20;3.08;;;1.20;;
65039;SDS011;51606;45.000;38.612;2023-06-22T13:33:47;1.80;;;1.33;;
65039;SDS011;51606;45.000;38.612;2023-06-22T13:36:14;9.02;;;2.10;;
65039;SDS011;51606;45.000;38.612;2023-06-22T13:38:41;2.70;;;1.40;;
65039;SDS011;51606;45.000;38.612;2023-06-22T13:41:07;2.20;;;1.60;;
65039;SDS011;51606;45.000;38.612;2023-06-22T13:43:34;3.00;;;1.50;;
65039;SDS011;51606;45.000;38.612;2023-06-22T13:46:00;1.50;;;1.20;;
65039;SDS011;51606;45.000;38.612;2023-06-22T13:48:27;1.70;;;1.30;;
65039;SDS011;51606;45.000;38.612;2023-06-22T13:50:54;1.73;;;1.48;;
65039;SDS011;51606;45.000;38.612;2023-06-22T13:53:20;1.92;;;1.40;;
65039;SDS011;51606;45.000;38.612;2023-06-22T13:55:49;2.30;;;1.55;;
65039;SDS011;51606;45.000;38.612;2023-06-22T13:58:16;2.35;;;1.60;;
65039;SDS011;51606;45.000;38.612;2023-06-22T14:00:45;3.42;;;1.30;;
65039;SDS011;51606;45.000;38.612;2023-06-22T14:03:11;1.95;;;1.40;;
65039;SDS011;51606;45.000;38.612;2023-06-22T14:05:41;1.42;;;1.17;;
65039;SDS011;51606;45.000;38.612;2023-06-22T14:08:08;10.65;;;1.55;;
65039;SDS011;51606;45.000;38.612;2023-06-22T14:10:34;1.75;;;1.30;;
65039;SDS011;51606;45.000;38.612;2023-06-22T14:13:01;1.85;;;1.40;;
65039;SDS011;51606;45.000;38.612;2023-06-22T14:15:27;2.25;;;1.55;;
65039;SDS011;51606;45.000;38.612;2023-06-22T14:17:54;2.65;;;1.40;;
65039;SDS011;51606;45.000;38.612;2023-06-22T14:20:20;5.10;;;1.27;;
65039;SDS011;51606;45.000;38.612;2023-06-22T14:22:46;2.63;;;1.50;;
65039;SDS011;51606;45.000;38.612;2023-06-22T14:25:13;1.80;;;1.38;;
65039;SDS011;51606;45.000;38.612;2023-06-22T14:27:40;2.15;;;1.52;;
65039;SDS011;51606;45.000;38.612;2023-06-22T14:30:06;2.88;;;1.40;;
65039;SDS011;51606;45.000;38.612;2023-06-22T14:32:33;1.90;;;1.10;;
65039;SDS011;51606;45.000;38.612;2023-06-22T14:34:59;3.30;;;1.65;;
65039;SDS011;51606;45.000;38.612;2023-06-22T14:37:26;10.68;;;1.30;;
65039;SDS011;51606;45.000;38.612;2023-06-22T14:39:53;2.03;;;1.33;;
65039;SDS011;51606;45.000;38.612;2023-06-22T14:42:19;3.50;;;1.77;;
65039;SDS011;51606;45.000;38.612;2023-06-22T14:44:46;4.28;;;1.27;;
65039;SDS011;51606;45.000;38.612;2023-06-22T14:47:14;2.75;;;1.17;;
65039;SDS011;51606;45.000;38.612;2023-06-22T14:49:41;3.50;;;1.02;;
65039;SDS011;51606;45.000;38.612;2023-06-22T14:52:07;1.52;;;1.10;;
65039;SDS011;51606;45.000;38.612;2023-06-22T14:54:34;2.17;;;1.30;;
65039;SDS011;51606;45.000;38.612;2023-06-22T14:57:00;4.05;;;1.20;;
65039;SDS011;51606;45.000;38.612;2023-06-22T14:59:26;2.92;;;1.27;;
65039;SDS011;51606;45.000;38.612;2023-06-22T15:01:53;1.08;;;0.90;;
65039;SDS011;51606;45.000;38.612;2023-06-22T15:04:20;1.42;;;1.15;;
65039;SDS011;51606;45.000;38.612;2023-06-22T15:06:46;2.08;;;1.17;;
65039;SDS011;51606;45.000;38.612;2023-06-22T15:09:12;2.40;;;1.00;;
65039;SDS011;51606;45.000;38.612;2023-06-22T15:11:39;2.85;;;1.00;;
65039;SDS011;51606;45.000;38.612;2023-06-22T15:14:05;1.35;;;0.95;;
65039;SDS011;51606;45.000;38.612;2023-06-22T15:16:32;2.30;;;1.27;;
65039;SDS011;51606;45.000;38.612;2023-06-22T15:18:58;9.43;;;1.20;;
65039;SDS011;51606;45.000;38.612;2023-06-22T15:21:24;3.80;;;1.40;;
65039;SDS011;51606;45.000;38.612;2023-06-22T15:23:51;5.82;;;1.42;;
65039;SDS011;51606;45.000;38.612;2023-06-22T15:26:17;1.58;;;1.15;;
65039;SDS011;51606;45.000;38.612;2023-06-22T15:28:44;1.58;;;1.13;;
65039;SDS011;51606;45.000;38.612;2023-06-22T15:31:10;9.90;;;1.75;;
65039;SDS011;51606;45.000;38.612;2023-06-22T15:33:37;1.33;;;0.93;;
65039;SDS011;51606;45.000;38.612;2023-06-22T15:36:03;1.73;;;1.08;;
65039;SDS011;51606;45.000;38.612;2023-06-22T15:38:32;1.48;;;0.80;;
65039;SDS011;51606;45.000;38.612;2023-06-22T15:40:59;4.80;;;1.17;;
65039;SDS011;51606;45.000;38.612;2023-06-22T15:43:25;1.10;;;0.90;;
65039;SDS011;51606;45.000;38.612;2023-06-22T15:45:52;1.05;;;0.90;;
65039;SDS011;51606;45.000;38.612;2023-06-22T15:48:20;4.70;;;1.30;;
65039;SDS011;51606;45.000;38.612;2023-06-22T15:50:47;6.28;;;0.73;;
65039;SDS011;51606;45.000;38.612;2023-06-22T15:53:14;1.83;;;1.10;;
65039;SDS011;51606;45.000;38.612;2023-06-22T15:55:40;1.02;;;0.80;;
65039;SDS011;51606;45.000;38.612;2023-06-22T15:58:07;2.88;;;1.05;;
65039;SDS011;51606;45.000;38.612;2023-06-22T16:00:34;2.20;;;1.20;;
65039;SDS011;51606;45.000;38.612;2023-06-22T16:03:01;5.03;;;0.93;;
65039;SDS011;51606;45.000;38.612;2023-06-22T16:05:27;3.35;;;1.00;;
65039;SDS011;51606;45.000;38.612;2023-06-22T16:07:57;0.80;;;0.80;;
65039;SDS011;51606;45.000;38.612;2023-06-22T16:10:23;1.85;;;0.90;;
65039;SDS011;51606;45.000;38.612;2023-06-22T16:12:49;1.33;;;0.93;;
65039;SDS011;51606;45.000;38.612;2023-06-22T16:15:16;1.08;;;0.80;;
65039;SDS011;51606;45.000;38.612;2023-06-22T16:17:43;1.77;;;0.85;;
65039;SDS011;51606;45.000;38.612;2023-06-22T16:20:09;1.23;;;0.90;;
65039;SDS011;51606;45.000;38.612;2023-06-22T16:22:36;1.80;;;0.90;;
65039;SDS011;51606;45.000;38.612;2023-06-22T16:25:02;5.95;;;1.00;;
65039;SDS011;51606;45.000;38.612;2023-06-22T16:27:29;2.55;;;1.02;;
65039;SDS011;51606;45.000;38.612;2023-06-22T16:30:00;1.73;;;0.90;;
65039;SDS011;51606;45.000;38.612;2023-06-22T16:32:27;4.95;;;1.15;;
65039;SDS011;51606;45.000;38.612;2023-06-22T16:34:53;1.20;;;0.88;;
65039;SDS011;51606;45.000;38.612;2023-06-22T16:37:20;1.77;;;0.90;;
65039;SDS011;51606;45.000;38.612;2023-06-22T16:39:46;6.82;;;1.15;;
65039;SDS011;51606;45.000;38.612;2023-06-22T16:42:13;0.82;;;0.70;;
65039;SDS011;51606;45.000;38.612;2023-06-22T16:44:39;1.10;;;0.98;;
65039;SDS011;51606;45.000;38.612;2023-06-22T16:47:06;1.30;;;0.95;;
65039;SDS011;51606;45.000;38.612;2023-06-22T16:49:34;1.30;;;0.90;;
65039;SDS011;51606;45.000;38.612;2023-06-22T16:52:03;2.53;;;1.30;;
65039;SDS011;51606;45.000;38.612;2023-06-22T16:54:30;7.28;;;1.13;;
65039;SDS011;51606;45.000;38.612;2023-06-22T16:57:01;4.10;;;1.00;;
65039;SDS011;51606;45.000;38.612;2023-06-22T16:59:30;11.60;;;1.00;;
65039;SDS011;51606;45.000;38.612;2023-06-22T17:01:56;1.50;;;1.00;;
65039;SDS011;51606;45.000;38.612;2023-06-22T17:04:24;11.68;;;1.45;;
65039;SDS011;51606;45.000;38.612;2023-06-22T17:06:57;1.95;;;1.50;;
65039;SDS011;51606;45.000;38.612;2023-06-22T17:09:26;2.42;;;1.08;;
65039;SDS011;51606;45.000;38.612;2023-06-22T17:11:53;1.20;;;0.82;;
65039;SDS011;51606;45.000;38.612;2023-06-22T17:14:20;2.28;;;1.17;;
65039;SDS011;51606;45.000;38.612;2023-06-22T17:16:49;1.20;;;0.82;;
65039;SDS011;51606;45.000;38.612;2023-06-22T17:19:17;4.93;;;1.10;;
65039;SDS011;51606;45.000;38.612;2023-06-22T17:21:48;2.00;;;0.93;;
65039;SDS011;51606;45.000;38.612;2023-06-22T17:24:17;1.58;;;0.73;;
65039;SDS011;51606;45.000;38.612;2023-06-22T17:26:54;5.88;;;0.77;;
65039;SDS011;51606;45.000;38.612;2023-06-22T17:29:21;2.00;;;1.10;;
65039;SDS011;51606;45.000;38.612;2023-06-22T17:31:57;4.32;;;0.77;;
65039;SDS011;51606;45.000;38.612;2023-06-22T17:34:26;2.08;;;1.02;;
65039;SDS011;51606;45.000;38.612;2023-06-22T17:36:57;2.58;;;1.48;;
65039;SDS011;51606;45.000;38.612;2023-06-22T17:39:25;1.90;;;1.23;;
65039;SDS011;51606;45.000;38.612;2023-06-22T17:41:52;2.67;;;1.23;;
65039;SDS011;51606;45.000;38.612;2023-06-22T17:46:50;1.55;;;1.30;;
